createdAt,value
2022-09-24T00:01:29.815Z,98961.91
2022-09-24T00:04:00.782Z,98957.84
2022-09-24T00:06:30.058Z,98960.75
2022-09-24T00:08:58.093Z,98952.25
2022-09-24T00:11:27.435Z,98945.84
2022-09-24T00:13:56.606Z,98946.50
2022-09-24T00:16:26.002Z,98943.41
2022-09-24T00:18:54.133Z,98930.31
2022-09-24T00:21:25.107Z,98923.28
2022-09-24T00:23:55.197Z,98917.16
2022-09-24T00:26:41.196Z,98910.59
2022-09-24T00:29:09.621Z,98912.38
2022-09-24T00:31:37.088Z,98902.59
2022-09-24T00:34:04.721Z,98892.16
2022-09-24T00:36:31.948Z,98892.03
2022-09-24T00:39:00.253Z,98871.56
2022-09-24T00:41:30.151Z,98878.09
2022-09-24T00:43:58.207Z,98870.25
2022-09-24T00:46:44.348Z,98863.72
2022-09-24T00:49:17.933Z,98850.97
2022-09-24T00:51:49.232Z,98845.56
2022-09-24T00:54:23.699Z,98831.69
2022-09-24T00:56:52.528Z,98823.56
2022-09-24T00:59:23.240Z,98821.63
2022-09-24T01:01:52.951Z,98810.28
2022-09-24T01:04:23.394Z,98808.13
2022-09-24T01:06:50.706Z,98798.19
2022-09-24T01:09:22.641Z,98802.31
2022-09-24T01:12:01.932Z,98802.28
2022-09-24T01:14:44.069Z,98789.19
2022-09-24T01:17:48.095Z,98791.16
2022-09-24T01:20:52.818Z,98780.75
2022-09-24T01:23:48.968Z,98767.66
2022-09-24T01:26:38.489Z,98762.72
2022-09-24T01:29:27.345Z,98759.81
2022-09-24T01:32:06.023Z,98757.81
2022-09-24T01:34:41.567Z,98755.09
2022-09-24T01:37:09.396Z,98745.28
2022-09-24T01:39:37.955Z,98742.50
2022-09-24T01:42:06.755Z,98722.19
2022-09-24T01:44:34.959Z,98721.75
2022-09-24T01:47:04.497Z,98714.94
2022-09-24T01:49:31.720Z,98715.69
2022-09-24T01:52:03.453Z,98714.34
2022-09-24T01:54:41.473Z,98698.47
2022-09-24T01:57:15.433Z,98706.78
2022-09-24T01:59:52.476Z,98697.97
2022-09-24T02:02:40.763Z,98699.22
2022-09-24T02:05:14.906Z,98687.31
2022-09-24T02:07:50.793Z,98665.53
2022-09-24T02:10:20.447Z,98691.44
2022-09-24T02:12:55.350Z,98692.72
2022-09-24T02:15:32.920Z,98678.28
2022-09-24T02:18:06.650Z,98675.66
2022-09-24T02:20:36.353Z,98669.63
2022-09-24T02:23:05.002Z,98666.66
2022-09-24T02:25:42.718Z,98661.25
2022-09-24T02:28:10.107Z,98651.41
2022-09-24T02:30:46.441Z,98648.69
2022-09-24T02:33:33.963Z,98638.84
2022-09-24T02:36:01.389Z,98632.47
2022-09-24T02:38:28.352Z,98634.09
2022-09-24T02:40:56.457Z,98619.19
2022-09-24T02:43:23.474Z,98623.44
2022-09-24T02:45:50.354Z,98619.03
2022-09-24T02:48:17.866Z,98618.41
2022-09-24T02:50:44.762Z,98617.22
2022-09-24T02:53:11.741Z,98608.72
2022-09-24T02:55:38.929Z,98607.28
2022-09-24T02:58:05.821Z,98610.91
2022-09-24T03:00:32.928Z,98603.06
2022-09-24T03:02:59.919Z,98608.09
2022-09-24T03:05:26.940Z,98606.81
2022-09-24T03:07:53.960Z,98603.41
2022-09-24T03:10:20.990Z,98598.22
2022-09-24T03:12:48.038Z,98595.81
2022-09-24T03:15:15.194Z,98603.53
2022-09-24T03:17:42.354Z,98599.16
2022-09-24T03:20:09.436Z,98589.31
2022-09-24T03:22:36.356Z,98587.97
2022-09-24T03:25:03.566Z,98582.53
2022-09-24T03:27:31.014Z,98575.50
2022-09-24T03:30:36.513Z,98588.41
2022-09-24T03:33:03.473Z,98583.19
2022-09-24T03:35:30.395Z,98587.97
2022-09-24T03:37:57.398Z,98579.47
2022-09-24T03:40:25.481Z,98580.31
2022-09-24T03:42:52.370Z,98577.28
2022-09-24T03:45:19.368Z,98584.69
2022-09-24T03:47:46.251Z,98585.34
2022-09-24T03:50:13.212Z,98566.84
2022-09-24T03:52:40.130Z,98571.09
2022-09-24T03:55:08.147Z,98564.22
2022-09-24T03:57:35.163Z,98571.09
2022-09-24T04:00:02.495Z,98565.31
2022-09-24T04:02:33.917Z,98571.06
2022-09-24T04:05:01.153Z,98561.94
2022-09-24T04:07:28.219Z,98561.16
2022-09-24T04:09:55.168Z,98550.22
2022-09-24T04:12:23.138Z,98548.81
2022-09-24T04:14:50.007Z,98542.31
2022-09-24T04:17:17.587Z,98542.22
2022-09-24T04:19:44.501Z,98541.59
2022-09-24T04:22:11.422Z,98531.78
2022-09-24T04:24:38.387Z,98522.31
2022-09-24T04:27:05.308Z,98525.13
2022-09-24T04:29:32.203Z,98509.59
2022-09-24T04:31:59.102Z,98508.94
2022-09-24T04:34:26.039Z,98491.84
2022-09-24T04:36:52.894Z,98503.09
2022-09-24T04:39:22.513Z,98506.50
2022-09-24T04:41:49.403Z,98492.00
2022-09-24T04:44:16.491Z,98482.88
2022-09-24T04:46:43.486Z,98487.22
2022-09-24T04:49:11.919Z,98483.91
2022-09-24T04:51:38.817Z,98486.13
2022-09-24T04:54:05.844Z,98471.44
2022-09-24T04:56:32.843Z,98471.00
2022-09-24T04:58:59.884Z,98459.53
2022-09-24T05:01:27.008Z,98457.09
2022-09-24T05:03:53.971Z,98455.19
2022-09-24T05:06:20.899Z,98454.56
2022-09-24T05:08:47.852Z,98446.38
2022-09-24T05:11:14.783Z,98436.91
2022-09-24T05:13:41.655Z,98403.72
2022-09-24T05:16:09.524Z,98425.91
2022-09-24T05:18:37.244Z,98421.41
2022-09-24T05:21:04.322Z,98411.22
2022-09-24T05:23:31.237Z,98405.00
2022-09-24T05:26:16.931Z,98395.19
2022-09-24T05:28:43.816Z,98395.00
2022-09-24T05:31:11.039Z,98390.13
2022-09-24T05:33:38.501Z,98384.34
2022-09-24T05:36:05.760Z,98375.34
2022-09-24T05:38:33.184Z,98373.81
2022-09-24T05:41:00.272Z,98367.03
2022-09-24T05:43:31.863Z,98366.78
2022-09-24T05:45:58.943Z,98349.31
2022-09-24T05:48:28.667Z,98346.31
2022-09-24T05:50:55.708Z,98343.53
2022-09-24T05:53:25.734Z,98331.19
2022-09-24T05:55:52.851Z,98331.19
2022-09-24T05:58:20.797Z,98327.03
2022-09-24T06:00:47.694Z,98325.41
2022-09-24T06:03:16.825Z,98322.00
2022-09-24T06:05:50.653Z,98320.81
2022-09-24T06:08:19.406Z,98317.03
2022-09-24T06:10:47.483Z,98306.75
2022-09-24T06:13:18.417Z,98303.78
2022-09-24T06:15:45.845Z,98298.72
2022-09-24T06:18:12.805Z,98301.34
2022-09-24T06:20:40.399Z,98296.91
2022-09-24T06:23:07.924Z,98296.03
2022-09-24T06:25:35.152Z,98294.03
2022-09-24T06:28:04.132Z,98296.47
2022-09-24T06:30:34.806Z,98280.16
2022-09-24T06:33:09.883Z,98294.22
2022-09-24T06:35:38.183Z,98290.53
2022-09-24T06:38:06.112Z,98294.97
2022-09-24T06:40:37.145Z,98287.41
2022-09-24T06:43:05.621Z,98280.53
2022-09-24T06:45:33.025Z,98283.31
2022-09-24T06:48:02.320Z,98284.59
2022-09-24T06:50:30.985Z,98281.25
2022-09-24T06:52:58.761Z,98286.56
2022-09-24T06:55:26.284Z,98285.41
2022-09-24T06:58:12.930Z,98282.16
2022-09-24T07:00:41.075Z,98281.81
2022-09-24T07:03:16.681Z,98277.91
2022-09-24T07:05:44.177Z,98275.66
2022-09-24T07:08:11.455Z,98283.41
2022-09-24T07:10:42.583Z,98271.00
2022-09-24T07:13:09.526Z,98276.84
2022-09-24T07:15:36.509Z,98272.59
2022-09-24T07:18:03.682Z,98273.78
2022-09-24T07:20:34.622Z,98264.34
2022-09-24T07:23:01.701Z,98266.22
2022-09-24T07:25:28.603Z,98268.38
2022-09-24T07:27:55.626Z,98266.22
2022-09-24T07:30:22.548Z,98263.31
2022-09-24T07:32:55.296Z,98259.38
2022-09-24T07:35:23.015Z,98253.22
2022-09-24T07:37:57.172Z,98251.91
2022-09-24T07:40:24.657Z,98237.31
2022-09-24T07:42:51.692Z,98242.25
2022-09-24T07:45:18.587Z,98242.78
2022-09-24T07:47:45.517Z,98242.25
2022-09-24T07:50:13.779Z,98239.44
2022-09-24T07:52:40.782Z,98238.28
2022-09-24T07:55:08.331Z,98230.63
2022-09-24T07:57:35.319Z,98231.91
2022-09-24T08:00:02.434Z,98224.06
2022-09-24T08:02:38.605Z,98226.09
2022-09-24T08:05:06.146Z,98224.06
2022-09-24T08:07:33.034Z,98220.88
2022-09-24T08:10:01.563Z,98219.19
2022-09-24T08:12:30.879Z,98217.81
2022-09-24T08:14:58.268Z,98216.66
2022-09-24T08:17:25.192Z,98196.41
2022-09-24T08:19:53.698Z,98200.91
2022-09-24T08:22:20.627Z,98208.25
2022-09-24T08:24:47.604Z,98208.25
2022-09-24T08:27:17.307Z,98207.72
2022-09-24T08:29:44.527Z,98212.94
2022-09-24T08:32:11.844Z,98210.31
2022-09-24T08:34:40.789Z,98205.16
2022-09-24T08:37:08.930Z,98205.16
2022-09-24T08:39:35.833Z,98205.16
2022-09-24T08:42:06.356Z,98203.47
2022-09-24T08:45:04.313Z,98198.41
2022-09-24T08:47:48.415Z,98200.25
2022-09-24T08:50:17.525Z,98195.06
2022-09-24T08:53:01.309Z,98193.06
2022-09-24T08:55:33.959Z,98188.78
2022-09-24T08:58:19.797Z,98189.22
2022-09-24T09:01:11.116Z,98192.47
2022-09-24T09:03:50.403Z,98193.31
2022-09-24T09:06:35.969Z,98192.59
2022-09-24T09:09:15.105Z,98183.38
2022-09-24T09:11:50.669Z,98174.75
2022-09-24T09:14:41.960Z,98179.31
2022-09-24T09:17:29.643Z,98180.38
2022-09-24T09:19:58.058Z,98183.00
2022-09-24T09:22:31.362Z,98175.47
2022-09-24T09:25:14.509Z,98175.66
2022-09-24T09:27:41.538Z,98174.66
2022-09-24T09:30:14.581Z,98167.81
2022-09-24T09:32:47.163Z,98163.63
2022-09-24T09:35:27.277Z,98165.09
2022-09-24T09:38:09.708Z,98163.09
2022-09-24T09:40:46.218Z,98158.75
2022-09-24T09:43:14.503Z,98163.44
2022-09-24T09:45:56.257Z,98148.41
2022-09-24T09:48:28.375Z,98154.94
2022-09-24T09:51:05.358Z,98136.34
2022-09-24T09:53:33.334Z,98140.63
2022-09-24T09:56:08.200Z,98144.66
2022-09-24T09:58:40.258Z,98131.22
2022-09-24T10:01:11.708Z,98137.81
2022-09-24T10:03:44.740Z,98132.38
2022-09-24T10:06:13.718Z,98128.53
2022-09-24T10:08:41.293Z,98129.97
2022-09-24T10:11:15.328Z,98129.56
2022-09-24T10:13:42.334Z,98126.34
2022-09-24T10:16:12.140Z,98131.34
2022-09-24T10:18:39.046Z,98128.94
2022-09-24T10:21:12.197Z,98131.34
2022-09-24T10:23:44.425Z,98131.97
2022-09-24T10:26:11.521Z,98134.56
2022-09-24T10:29:04.680Z,98131.53
2022-09-24T10:31:35.455Z,98128.22
2022-09-24T10:34:02.881Z,98130.06
2022-09-24T10:36:32.896Z,98133.09
2022-09-24T10:39:08.896Z,98125.88
2022-09-24T10:41:36.120Z,98122.81
2022-09-24T10:44:13.664Z,98125.88
2022-09-24T10:47:11.197Z,98123.88
2022-09-24T10:49:38.077Z,98119.25
2022-09-24T10:52:39.168Z,98126.34
2022-09-24T10:55:33.991Z,98117.75
2022-09-24T10:58:31.856Z,98114.00
2022-09-24T11:01:01.761Z,98119.84
2022-09-24T11:03:50.524Z,98118.84
2022-09-24T11:06:41.969Z,98119.84
2022-09-24T11:09:26.895Z,98111.00
2022-09-24T11:12:00.515Z,98104.34
2022-09-24T11:14:47.602Z,98108.22
2022-09-24T11:17:15.863Z,98110.47
2022-09-24T11:20:13.707Z,98119.56
2022-09-24T11:23:11.372Z,98104.03
2022-09-24T11:25:56.507Z,98110.06
2022-09-24T11:28:59.408Z,98108.50
2022-09-24T11:31:44.422Z,98110.91
2022-09-24T11:34:43.718Z,98100.84
2022-09-24T11:37:46.465Z,98100.84
2022-09-24T11:40:44.365Z,98102.25
2022-09-24T11:43:20.153Z,98091.16
2022-09-24T11:46:06.529Z,98099.81
2022-09-24T11:49:09.040Z,98094.81
2022-09-24T11:51:47.898Z,98100.06
2022-09-24T11:54:44.251Z,98095.19
2022-09-24T11:57:22.159Z,98091.59
2022-09-24T12:00:01.760Z,98087.34
2022-09-24T12:02:43.954Z,98083.13
2022-09-24T12:05:34.036Z,98085.53
2022-09-24T12:08:13.859Z,98079.06
2022-09-24T12:10:49.937Z,98080.69
2022-09-24T12:13:20.483Z,98076.59
2022-09-24T12:15:56.449Z,98073.75
2022-09-24T12:18:40.691Z,98072.72
2022-09-24T12:21:10.843Z,98079.41
2022-09-24T12:23:42.979Z,98067.69
2022-09-24T12:26:12.039Z,98079.81
2022-09-24T12:29:17.604Z,98072.31
2022-09-24T12:32:46.359Z,98063.66
2022-09-24T12:35:24.114Z,98069.13
2022-09-24T12:37:56.281Z,98069.34
2022-09-24T12:40:51.013Z,98064.13
2022-09-24T12:43:42.654Z,98065.38
2022-09-24T12:46:19.040Z,98069.56
2022-09-24T12:48:47.465Z,98064.16
2022-09-24T12:51:14.691Z,98068.59
2022-09-24T12:53:43.291Z,98059.66
2022-09-24T12:56:11.926Z,98058.84
2022-09-24T12:58:44.178Z,98063.28
2022-09-24T13:01:23.192Z,98057.41
2022-09-24T13:04:14.501Z,98059.03
2022-09-24T13:06:43.954Z,98052.81
2022-09-24T13:09:34.674Z,98065.25
2022-09-24T13:12:18.135Z,98054.19
2022-09-24T13:15:04.402Z,98056.19
2022-09-24T13:17:33.192Z,98055.19
2022-09-24T13:20:05.700Z,98055.63
2022-09-24T13:22:36.094Z,98051.19
2022-09-24T13:25:20.345Z,98054.16
2022-09-24T13:27:58.293Z,98049.16
2022-09-24T13:30:39.958Z,98053.59
2022-09-24T13:33:15.606Z,98064.00
2022-09-24T13:35:53.607Z,98054.88
2022-09-24T13:38:35.117Z,98052.28
2022-09-24T13:41:30.133Z,98054.69
2022-09-24T13:44:04.854Z,98060.72
2022-09-24T13:46:35.059Z,98060.34
2022-09-24T13:49:06.552Z,98062.97
2022-09-24T13:51:37.426Z,98052.28
2022-09-24T13:54:17.470Z,98055.13
2022-09-24T13:57:14.120Z,98048.25
2022-09-24T13:59:41.092Z,98053.47
2022-09-24T14:02:28.303Z,98053.91
2022-09-24T14:05:00.737Z,98047.50
2022-09-24T14:07:28.960Z,98040.25
2022-09-24T14:10:13.213Z,98041.09
2022-09-24T14:12:40.706Z,98039.03
2022-09-24T14:15:15.281Z,98037.78
2022-09-24T14:17:42.733Z,98042.66
2022-09-24T14:20:15.766Z,98044.88
2022-09-24T14:22:46.090Z,98040.44
2022-09-24T14:25:17.997Z,98041.88
2022-09-24T14:27:49.167Z,98033.44
2022-09-24T14:30:22.149Z,98034.22
2022-09-24T14:32:58.549Z,98028.78
2022-09-24T14:35:37.341Z,98035.03
2022-09-24T14:38:19.131Z,98037.03
2022-09-24T14:40:51.466Z,98040.63
2022-09-24T14:43:31.761Z,98039.03
2022-09-24T14:46:09.550Z,98042.03
2022-09-24T14:48:36.792Z,98037.78
2022-09-24T14:51:04.250Z,98029.56
2022-09-24T14:53:34.350Z,98025.31
2022-09-24T14:56:18.122Z,98028.34
2022-09-24T14:58:45.154Z,98036.56
2022-09-24T15:01:17.767Z,98031.34
2022-09-24T15:03:58.699Z,98028.09
2022-09-24T15:06:35.127Z,98022.88
2022-09-24T15:09:15.872Z,98021.59
2022-09-24T15:11:43.765Z,98030.63
2022-09-24T15:14:25.218Z,98032.03
2022-09-24T15:16:53.383Z,98037.28
2022-09-24T15:19:27.702Z,98046.94
2022-09-24T15:21:58.870Z,98043.34
2022-09-24T15:24:26.096Z,98041.69
2022-09-24T15:27:05.214Z,98043.94
2022-09-24T15:29:32.512Z,98043.75
2022-09-24T15:31:59.893Z,98034.84
2022-09-24T15:34:27.529Z,98033.66
2022-09-24T15:36:59.226Z,98034.47
2022-09-24T15:39:28.296Z,98036.47
2022-09-24T15:41:55.199Z,98038.47
2022-09-24T15:44:28.358Z,98043.72
2022-09-24T15:46:58.628Z,98040.06
2022-09-24T15:49:26.410Z,98026.75
2022-09-24T15:52:00.306Z,98034.03
2022-09-24T15:54:27.682Z,98035.88
2022-09-24T15:56:54.685Z,98030.19
2022-09-24T15:59:23.513Z,98040.00
2022-09-24T16:01:54.357Z,98035.78
2022-09-24T16:04:21.582Z,98034.16
2022-09-24T16:06:49.828Z,98030.94
2022-09-24T16:09:16.810Z,98027.88
2022-09-24T16:11:44.146Z,98030.31
2022-09-24T16:14:11.260Z,98035.09
2022-09-24T16:16:39.393Z,98030.69
2022-09-24T16:19:09.749Z,98031.88
2022-09-24T16:21:36.940Z,98031.88
2022-09-24T16:24:04.117Z,98037.72
2022-09-24T16:26:32.118Z,98035.09
2022-09-24T16:28:59.157Z,98035.09
2022-09-24T16:31:26.066Z,98029.88
2022-09-24T16:33:53.023Z,98021.44
2022-09-24T16:36:20.903Z,98023.41
2022-09-24T16:38:47.744Z,98020.97
2022-09-24T16:41:14.607Z,98025.00
2022-09-24T16:43:41.593Z,98023.16
2022-09-24T16:46:10.299Z,98033.38
2022-09-24T16:48:37.471Z,98024.88
2022-09-24T16:51:10.206Z,98030.34
2022-09-24T16:53:37.742Z,98033.19
2022-09-24T16:56:10.911Z,98030.78
2022-09-24T16:58:37.927Z,98026.91
2022-09-24T17:01:06.820Z,98030.97
2022-09-24T17:03:34.339Z,98032.78
2022-09-24T17:06:01.617Z,98019.25
2022-09-24T17:08:50.051Z,98025.69
2022-09-24T17:11:17.428Z,98025.31
2022-09-24T17:13:44.480Z,98018.84
2022-09-24T17:16:11.501Z,98018.00
2022-09-24T17:18:38.610Z,98024.00
2022-09-24T17:21:11.360Z,98015.00
2022-09-24T17:23:39.243Z,98018.22
2022-09-24T17:26:08.846Z,98015.59
2022-09-24T17:28:37.305Z,98014.25
2022-09-24T17:31:05.314Z,98014.25
2022-09-24T17:33:43.302Z,98008.66
2022-09-24T17:36:14.303Z,98001.81
2022-09-24T17:38:41.911Z,98002.56
2022-09-24T17:41:11.274Z,98005.41
2022-09-24T17:43:38.950Z,98000.56
2022-09-24T17:46:13.639Z,98005.41
2022-09-24T17:48:44.713Z,98003.34
2022-09-24T17:51:14.348Z,98000.56
2022-09-24T17:53:41.568Z,98012.25
2022-09-24T17:56:11.792Z,98002.00
2022-09-24T17:58:41.270Z,98004.78
2022-09-24T18:01:17.697Z,97992.34
2022-09-24T18:03:45.680Z,97994.16
2022-09-24T18:06:14.941Z,97990.09
2022-09-24T18:08:44.505Z,97992.28
2022-09-24T18:11:15.416Z,97985.72
2022-09-24T18:13:42.359Z,97993.34
2022-09-24T18:16:16.965Z,97983.69
2022-09-24T18:18:44.474Z,97988.50
2022-09-24T18:21:13.624Z,97996.53
2022-09-24T18:23:41.295Z,97992.91
2022-09-24T18:26:11.490Z,97997.94
2022-09-24T18:28:41.581Z,97988.69
2022-09-24T18:31:10.995Z,97991.69
2022-09-24T18:33:39.985Z,97989.00
2022-09-24T18:36:10.404Z,97987.38
2022-09-24T18:38:37.519Z,97979.53
2022-09-24T18:41:15.802Z,97989.63
2022-09-24T18:43:42.922Z,97985.00
2022-09-24T18:46:12.474Z,97988.56
2022-09-24T18:48:44.650Z,97984.78
2022-09-24T18:51:20.543Z,97978.75
2022-09-24T18:53:55.822Z,97984.78
2022-09-24T18:56:24.338Z,97979.69
2022-09-24T18:59:19.497Z,97985.88
2022-09-24T19:01:48.399Z,97983.28
2022-09-24T19:04:16.735Z,97984.91
2022-09-24T19:06:46.292Z,97987.69
2022-09-24T19:09:14.820Z,97987.50
2022-09-24T19:11:42.066Z,97989.47
2022-09-24T19:14:12.273Z,97975.81
2022-09-24T19:16:40.278Z,97980.19
2022-09-24T19:19:07.489Z,97986.25
2022-09-24T19:21:34.449Z,97985.88
2022-09-24T19:24:01.728Z,97980.66
2022-09-24T19:26:31.998Z,97987.88
2022-09-24T19:28:59.781Z,97981.66
2022-09-24T19:31:30.063Z,97979.03
2022-09-24T19:33:58.707Z,97991.00
2022-09-24T19:36:25.711Z,97988.25
2022-09-24T19:38:53.272Z,97987.88
2022-09-24T19:41:25.111Z,97981.66
2022-09-24T19:44:02.041Z,97992.91
2022-09-24T19:46:32.528Z,97995.19
2022-09-24T19:49:00.145Z,97993.84
2022-09-24T19:51:30.171Z,97991.41
2022-09-24T19:54:02.743Z,97994.59
2022-09-24T19:56:30.054Z,97998.81
2022-09-24T19:58:58.821Z,97998.38
2022-09-24T20:01:28.254Z,97999.81
2022-09-24T20:03:56.135Z,97998.00
2022-09-24T20:06:27.137Z,98000.59
2022-09-24T20:08:54.461Z,97996.22
2022-09-24T20:11:24.844Z,97991.00
2022-09-24T20:13:53.797Z,97992.78
2022-09-24T20:16:22.931Z,97996.22
2022-09-24T20:18:51.201Z,97995.94
2022-09-24T20:21:19.225Z,97991.72
2022-09-24T20:23:47.618Z,97996.94
2022-09-24T20:26:34.980Z,98000.97
2022-09-24T20:29:02.659Z,97989.72
2022-09-24T20:31:29.982Z,97991.34
2022-09-24T20:33:57.254Z,97989.72
2022-09-24T20:36:25.382Z,97977.84
2022-09-24T20:38:53.120Z,97978.69
2022-09-24T20:41:23.297Z,97978.69
2022-09-24T20:43:51.480Z,97975.69
2022-09-24T20:46:24.453Z,97968.84
2022-09-24T20:48:53.079Z,97973.47
2022-09-24T20:51:21.515Z,97972.38
2022-09-24T20:53:49.580Z,97979.84
2022-09-24T20:56:18.048Z,97974.63
2022-09-24T20:58:45.849Z,97964.97
2022-09-24T21:01:12.920Z,97966.00
2022-09-24T21:03:45.145Z,97966.59
2022-09-24T21:06:15.083Z,97981.78
2022-09-24T21:08:45.136Z,97975.91
2022-09-24T21:11:16.250Z,97970.69
2022-09-24T21:13:45.767Z,97969.72
2022-09-24T21:16:12.773Z,97970.31
2022-09-24T21:18:44.496Z,97975.19
2022-09-24T21:21:20.077Z,97981.03
2022-09-24T21:23:52.879Z,97975.78
2022-09-24T21:26:28.609Z,97972.69
2022-09-24T21:29:03.082Z,97975.66
2022-09-24T21:31:32.706Z,97975.53
2022-09-24T21:33:59.806Z,97970.31
2022-09-24T21:36:29.944Z,97971.75
2022-09-24T21:39:02.335Z,97973.22
2022-09-24T21:41:32.186Z,97964.78
2022-09-24T21:43:59.716Z,97972.25
2022-09-24T21:46:28.419Z,97967.50
2022-09-24T21:48:55.840Z,97969.72
2022-09-24T21:51:23.711Z,97966.59
2022-09-24T21:53:52.927Z,97963.63
2022-09-24T21:56:21.367Z,97968.09
2022-09-24T21:58:49.907Z,97963.31
2022-09-24T22:01:28.723Z,97968.16
2022-09-24T22:03:58.313Z,97972.22
2022-09-24T22:06:28.671Z,97964.19
2022-09-24T22:08:58.048Z,97970.84
2022-09-24T22:11:27.455Z,97967.41
2022-09-24T22:13:55.953Z,97975.25
2022-09-24T22:16:23.262Z,97975.88
2022-09-24T22:18:50.219Z,97977.69
2022-09-24T22:21:17.180Z,97972.28
2022-09-24T22:23:44.062Z,97977.91
2022-09-24T22:26:14.817Z,97976.94
2022-09-24T22:28:42.897Z,97973.53
2022-09-24T22:31:15.817Z,97972.69
2022-09-24T22:34:01.765Z,97971.47
2022-09-24T22:36:30.625Z,97975.44
2022-09-24T22:38:59.646Z,97975.88
2022-09-24T22:41:28.838Z,97975.88
2022-09-24T22:43:59.500Z,97976.50
2022-09-24T22:46:27.574Z,97983.53
2022-09-24T22:48:56.404Z,97980.91
2022-09-24T22:51:26.552Z,97975.81
2022-09-24T22:53:54.220Z,97978.06
2022-09-24T22:56:24.690Z,97973.44
2022-09-24T22:59:00.039Z,97975.69
2022-09-24T23:01:28.247Z,97976.06
2022-09-24T23:03:56.526Z,97973.44
2022-09-24T23:06:24.517Z,97970.41
2022-09-24T23:08:52.801Z,97969.59
2022-09-24T23:11:22.515Z,97970.22
2022-09-24T23:13:55.807Z,97969.84
2022-09-24T23:16:25.876Z,97969.47
2022-09-24T23:18:55.722Z,97963.63
2022-09-24T23:21:27.096Z,97969.47
2022-09-24T23:23:55.955Z,97964.88
2022-09-24T23:26:24.715Z,97966.19
2022-09-24T23:28:53.158Z,97968.88
2022-09-24T23:31:22.751Z,97966.38
2022-09-24T23:33:50.065Z,97959.78
2022-09-24T23:36:18.127Z,97964.38
2022-09-24T23:38:45.242Z,97958.53
2022-09-24T23:41:13.573Z,97963.00
2022-09-24T23:43:41.775Z,97963.00
2022-09-24T23:46:10.048Z,97958.59
2022-09-24T23:48:37.241Z,97964.63
2022-09-24T23:51:04.784Z,97958.97
2022-09-24T23:53:32.055Z,97963.63
2022-09-24T23:55:59.156Z,97962.63
2022-09-24T23:58:26.184Z,97973.06
